sensor_id;sensor_type;location;lat;lon;timestamp;temperature;humidity
26342;DHT22;14054;50.108;8.640;2023-04-15T00:00:37;8.00;99.90
26342;DHT22;14054;50.108;8.640;2023-04-15T00:03:02;8.10;99.90
26342;DHT22;14054;50.108;8.640;2023-04-15T00:05:29;8.10;99.90
26342;DHT22;14054;50.108;8.640;2023-04-15T00:07:55;8.00;99.90
26342;DHT22;14054;50.108;8.640;2023-04-15T00:10:20;8.00;99.90
26342;DHT22;14054;50.108;8.640;2023-04-15T00:12:46;7.90;99.90
26342;DHT22;14054;50.108;8.640;2023-04-15T00:15:11;8.00;99.90
26342;DHT22;14054;50.108;8.640;2023-04-15T00:17:37;8.20;99.90
26342;DHT22;14054;50.108;8.640;2023-04-15T00:20:04;8.10;99.90
26342;DHT22;14054;50.108;8.640;2023-04-15T00:22:30;8.30;99.90
26342;DHT22;14054;50.108;8.640;2023-04-15T00:24:56;8.10;99.90
26342;DHT22;14054;50.108;8.640;2023-04-15T00:27:22;8.50;99.90
26342;DHT22;14054;50.108;8.640;2023-04-15T00:29:47;8.40;99.90
26342;DHT22;14054;50.108;8.640;2023-04-15T00:32:13;8.20;99.90
26342;DHT22;14054;50.108;8.640;2023-04-15T00:34:38;8.20;99.90
26342;DHT22;14054;50.108;8.640;2023-04-15T00:37:04;8.20;99.90
26342;DHT22;14054;50.108;8.640;2023-04-15T00:39:29;8.10;99.90
26342;DHT22;14054;50.108;8.640;2023-04-15T00:41:55;8.10;99.90
26342;DHT22;14054;50.108;8.640;2023-04-15T00:44:21;8.00;99.90
26342;DHT22;14054;50.108;8.640;2023-04-15T00:46:47;8.10;99.90
26342;DHT22;14054;50.108;8.640;2023-04-15T00:49:12;8.10;99.90
26342;DHT22;14054;50.108;8.640;2023-04-15T00:51:38;8.10;99.90
26342;DHT22;14054;50.108;8.640;2023-04-15T00:54:04;8.10;99.90
26342;DHT22;14054;50.108;8.640;2023-04-15T00:56:30;8.00;99.90
26342;DHT22;14054;50.108;8.640;2023-04-15T00:58:56;8.00;99.90
26342;DHT22;14054;50.108;8.640;2023-04-15T01:01:21;7.70;99.90
26342;DHT22;14054;50.108;8.640;2023-04-15T01:03:48;7.60;99.90
26342;DHT22;14054;50.108;8.640;2023-04-15T01:06:14;8.20;99.90
26342;DHT22;14054;50.108;8.640;2023-04-15T01:08:40;8.10;99.90
26342;DHT22;14054;50.108;8.640;2023-04-15T01:11:05;7.90;99.90
26342;DHT22;14054;50.108;8.640;2023-04-15T01:13:32;8.10;99.90
26342;DHT22;14054;50.108;8.640;2023-04-15T01:15:58;8.10;99.90
26342;DHT22;14054;50.108;8.640;2023-04-15T01:18:23;8.00;99.90
26342;DHT22;14054;50.108;8.640;2023-04-15T01:20:48;8.00;99.90
26342;DHT22;14054;50.108;8.640;2023-04-15T01:23:14;8.00;99.90
26342;DHT22;14054;50.108;8.640;2023-04-15T01:25:41;7.90;99.90
26342;DHT22;14054;50.108;8.640;2023-04-15T01:28:07;8.00;99.90
26342;DHT22;14054;50.108;8.640;2023-04-15T01:30:33;7.70;99.90
26342;DHT22;14054;50.108;8.640;2023-04-15T01:32:59;7.70;99.90
26342;DHT22;14054;50.108;8.640;2023-04-15T01:35:25;7.70;99.90
26342;DHT22;14054;50.108;8.640;2023-04-15T01:37:51;7.70;99.90
26342;DHT22;14054;50.108;8.640;2023-04-15T01:40:18;7.60;99.90
26342;DHT22;14054;50.108;8.640;2023-04-15T01:42:44;7.60;99.90
26342;DHT22;14054;50.108;8.640;2023-04-15T01:45:09;7.70;99.90
26342;DHT22;14054;50.108;8.640;2023-04-15T01:47:35;7.60;99.90
26342;DHT22;14054;50.108;8.640;2023-04-15T01:50:00;7.70;99.90
26342;DHT22;14054;50.108;8.640;2023-04-15T01:52:26;7.60;99.90
26342;DHT22;14054;50.108;8.640;2023-04-15T01:54:51;7.60;99.90
26342;DHT22;14054;50.108;8.640;2023-04-15T01:57:17;7.60;99.90
26342;DHT22;14054;50.108;8.640;2023-04-15T01:59:42;7.60;99.90
26342;DHT22;14054;50.108;8.640;2023-04-15T02:02:08;7.70;99.90
26342;DHT22;14054;50.108;8.640;2023-04-15T02:04:33;7.60;99.90
26342;DHT22;14054;50.108;8.640;2023-04-15T02:06:59;7.70;99.90
26342;DHT22;14054;50.108;8.640;2023-04-15T02:09:24;7.70;99.90
26342;DHT22;14054;50.108;8.640;2023-04-15T02:11:50;7.60;99.90
26342;DHT22;14054;50.108;8.640;2023-04-15T02:14:17;7.70;99.90
26342;DHT22;14054;50.108;8.640;2023-04-15T02:16:42;7.60;99.90
26342;DHT22;14054;50.108;8.640;2023-04-15T02:19:08;7.50;99.90
26342;DHT22;14054;50.108;8.640;2023-04-15T02:21:33;7.50;99.90
26342;DHT22;14054;50.108;8.640;2023-04-15T02:23:59;7.40;99.90
26342;DHT22;14054;50.108;8.640;2023-04-15T02:26:26;7.40;99.90
26342;DHT22;14054;50.108;8.640;2023-04-15T02:28:56;7.50;99.90
26342;DHT22;14054;50.108;8.640;2023-04-15T02:31:21;7.50;99.90
26342;DHT22;14054;50.108;8.640;2023-04-15T02:33:47;7.60;99.90
26342;DHT22;14054;50.108;8.640;2023-04-15T02:36:12;7.60;99.90
26342;DHT22;14054;50.108;8.640;2023-04-15T02:38:37;7.50;99.90
26342;DHT22;14054;50.108;8.640;2023-04-15T02:41:05;7.30;99.90
26342;DHT22;14054;50.108;8.640;2023-04-15T02:43:30;7.50;99.90
26342;DHT22;14054;50.108;8.640;2023-04-15T02:45:56;7.40;99.90
26342;DHT22;14054;50.108;8.640;2023-04-15T02:48:21;7.40;99.90
26342;DHT22;14054;50.108;8.640;2023-04-15T02:50:47;7.30;99.90
26342;DHT22;14054;50.108;8.640;2023-04-15T02:53:12;7.50;99.90
26342;DHT22;14054;50.108;8.640;2023-04-15T02:55:39;7.50;99.90
26342;DHT22;14054;50.108;8.640;2023-04-15T02:58:04;7.60;99.90
26342;DHT22;14054;50.108;8.640;2023-04-15T03:00:30;7.30;99.90
26342;DHT22;14054;50.108;8.640;2023-04-15T03:03:00;7.50;99.90
26342;DHT22;14054;50.108;8.640;2023-04-15T03:05:26;7.50;99.90
26342;DHT22;14054;50.108;8.640;2023-04-15T03:07:52;7.40;99.90
26342;DHT22;14054;50.108;8.640;2023-04-15T03:10:17;7.30;99.90
26342;DHT22;14054;50.108;8.640;2023-04-15T03:12:43;7.40;99.90
26342;DHT22;14054;50.108;8.640;2023-04-15T03:15:08;7.20;99.90
26342;DHT22;14054;50.108;8.640;2023-04-15T03:17:34;7.20;99.90
26342;DHT22;14054;50.108;8.640;2023-04-15T03:20:02;7.30;99.90
26342;DHT22;14054;50.108;8.640;2023-04-15T03:22:29;7.20;99.90
26342;DHT22;14054;50.108;8.640;2023-04-15T03:24:55;7.30;99.90
26342;DHT22;14054;50.108;8.640;2023-04-15T03:27:21;7.30;99.90
26342;DHT22;14054;50.108;8.640;2023-04-15T03:29:46;7.40;99.90
26342;DHT22;14054;50.108;8.640;2023-04-15T03:32:12;7.30;99.90
26342;DHT22;14054;50.108;8.640;2023-04-15T03:34:39;7.10;99.90
26342;DHT22;14054;50.108;8.640;2023-04-15T03:39:31;7.10;99.90
26342;DHT22;14054;50.108;8.640;2023-04-15T03:41:57;7.10;99.90
26342;DHT22;14054;50.108;8.640;2023-04-15T03:44:23;7.20;99.90
26342;DHT22;14054;50.108;8.640;2023-04-15T03:46:48;7.10;99.90
26342;DHT22;14054;50.108;8.640;2023-04-15T03:49:14;7.10;99.90
26342;DHT22;14054;50.108;8.640;2023-04-15T03:51:40;7.20;99.90
26342;DHT22;14054;50.108;8.640;2023-04-15T03:54:05;7.20;99.90
26342;DHT22;14054;50.108;8.640;2023-04-15T03:56:31;7.00;99.90
26342;DHT22;14054;50.108;8.640;2023-04-15T03:58:56;7.00;99.90
26342;DHT22;14054;50.108;8.640;2023-04-15T04:01:22;7.10;99.90
26342;DHT22;14054;50.108;8.640;2023-04-15T04:03:47;7.10;99.90
26342;DHT22;14054;50.108;8.640;2023-04-15T04:06:13;7.00;99.90
26342;DHT22;14054;50.108;8.640;2023-04-15T04:08:38;7.00;99.90
26342;DHT22;14054;50.108;8.640;2023-04-15T04:11:04;7.10;99.90
26342;DHT22;14054;50.108;8.640;2023-04-15T04:13:30;7.30;99.90
26342;DHT22;14054;50.108;8.640;2023-04-15T04:15:55;7.00;99.90
26342;DHT22;14054;50.108;8.640;2023-04-15T04:18:22;7.00;99.90
26342;DHT22;14054;50.108;8.640;2023-04-15T04:20:48;7.20;99.90
26342;DHT22;14054;50.108;8.640;2023-04-15T04:23:13;6.90;99.90
26342;DHT22;14054;50.108;8.640;2023-04-15T04:25:38;7.10;99.90
26342;DHT22;14054;50.108;8.640;2023-04-15T04:28:04;7.10;99.90
26342;DHT22;14054;50.108;8.640;2023-04-15T04:30:29;7.20;99.90
26342;DHT22;14054;50.108;8.640;2023-04-15T04:32:55;7.30;99.90
26342;DHT22;14054;50.108;8.640;2023-04-15T04:35:20;7.20;99.90
26342;DHT22;14054;50.108;8.640;2023-04-15T04:37:46;7.10;99.90
26342;DHT22;14054;50.108;8.640;2023-04-15T04:40:11;7.10;99.90
26342;DHT22;14054;50.108;8.640;2023-04-15T04:42:37;7.00;99.90
26342;DHT22;14054;50.108;8.640;2023-04-15T04:45:02;6.90;99.90
26342;DHT22;14054;50.108;8.640;2023-04-15T04:47:28;7.20;99.90
26342;DHT22;14054;50.108;8.640;2023-04-15T04:49:54;7.00;99.90
26342;DHT22;14054;50.108;8.640;2023-04-15T04:52:20;7.00;99.90
26342;DHT22;14054;50.108;8.640;2023-04-15T04:54:45;7.10;99.90
26342;DHT22;14054;50.108;8.640;2023-04-15T04:57:11;6.70;99.90
26342;DHT22;14054;50.108;8.640;2023-04-15T04:59:38;7.00;99.90
26342;DHT22;14054;50.108;8.640;2023-04-15T05:02:03;7.00;99.90
26342;DHT22;14054;50.108;8.640;2023-04-15T05:04:28;7.10;99.90
26342;DHT22;14054;50.108;8.640;2023-04-15T05:06:56;7.00;99.90
26342;DHT22;14054;50.108;8.640;2023-04-15T05:09:21;6.90;99.90
26342;DHT22;14054;50.108;8.640;2023-04-15T05:11:47;7.10;99.90
26342;DHT22;14054;50.108;8.640;2023-04-15T05:14:12;7.20;99.90
26342;DHT22;14054;50.108;8.640;2023-04-15T05:16:38;7.20;99.90
26342;DHT22;14054;50.108;8.640;2023-04-15T05:19:03;7.00;99.90
26342;DHT22;14054;50.108;8.640;2023-04-15T05:21:28;7.00;99.90
26342;DHT22;14054;50.108;8.640;2023-04-15T05:23:55;7.00;99.90
26342;DHT22;14054;50.108;8.640;2023-04-15T05:26:20;6.80;99.90
26342;DHT22;14054;50.108;8.640;2023-04-15T05:28:46;7.00;99.90
26342;DHT22;14054;50.108;8.640;2023-04-15T05:31:12;6.70;99.90
26342;DHT22;14054;50.108;8.640;2023-04-15T05:33:37;6.70;99.90
26342;DHT22;14054;50.108;8.640;2023-04-15T05:36:03;6.70;99.90
26342;DHT22;14054;50.108;8.640;2023-04-15T05:38:28;7.00;99.90
26342;DHT22;14054;50.108;8.640;2023-04-15T05:40:53;7.10;99.90
26342;DHT22;14054;50.108;8.640;2023-04-15T05:43:19;7.30;99.90
26342;DHT22;14054;50.108;8.640;2023-04-15T05:45:44;7.30;99.90
26342;DHT22;14054;50.108;8.640;2023-04-15T05:48:10;7.00;99.90
26342;DHT22;14054;50.108;8.640;2023-04-15T05:50:36;7.40;99.90
26342;DHT22;14054;50.108;8.640;2023-04-15T05:53:01;7.30;99.90
26342;DHT22;14054;50.108;8.640;2023-04-15T05:55:27;7.20;99.90
26342;DHT22;14054;50.108;8.640;2023-04-15T05:57:52;7.10;99.90
26342;DHT22;14054;50.108;8.640;2023-04-15T06:00:17;7.40;99.90
26342;DHT22;14054;50.108;8.640;2023-04-15T06:02:43;7.60;99.90
26342;DHT22;14054;50.108;8.640;2023-04-15T06:05:08;7.30;99.90
26342;DHT22;14054;50.108;8.640;2023-04-15T06:07:35;7.40;99.90
26342;DHT22;14054;50.108;8.640;2023-04-15T06:10:01;7.50;99.90
26342;DHT22;14054;50.108;8.640;2023-04-15T06:12:27;7.60;99.90
26342;DHT22;14054;50.108;8.640;2023-04-15T06:14:52;7.50;99.90
26342;DHT22;14054;50.108;8.640;2023-04-15T06:17:18;7.80;99.90
26342;DHT22;14054;50.108;8.640;2023-04-15T06:19:43;7.70;99.90
26342;DHT22;14054;50.108;8.640;2023-04-15T06:22:09;7.80;99.90
26342;DHT22;14054;50.108;8.640;2023-04-15T06:24:34;7.80;99.90
26342;DHT22;14054;50.108;8.640;2023-04-15T06:27:01;8.00;99.90
26342;DHT22;14054;50.108;8.640;2023-04-15T06:29:27;8.60;99.90
26342;DHT22;14054;50.108;8.640;2023-04-15T06:31:52;8.20;99.90
26342;DHT22;14054;50.108;8.640;2023-04-15T06:34:18;8.60;99.90
26342;DHT22;14054;50.108;8.640;2023-04-15T06:36:43;8.60;99.90
26342;DHT22;14054;50.108;8.640;2023-04-15T06:39:09;8.60;99.90
26342;DHT22;14054;50.108;8.640;2023-04-15T06:41:34;8.80;99.90
26342;DHT22;14054;50.108;8.640;2023-04-15T06:44:00;8.70;99.90
26342;DHT22;14054;50.108;8.640;2023-04-15T06:46:26;9.00;99.90
26342;DHT22;14054;50.108;8.640;2023-04-15T06:48:51;9.00;99.90
26342;DHT22;14054;50.108;8.640;2023-04-15T06:51:16;9.30;99.90
26342;DHT22;14054;50.108;8.640;2023-04-15T06:53:42;9.10;99.90
26342;DHT22;14054;50.108;8.640;2023-04-15T06:56:08;9.00;99.90
26342;DHT22;14054;50.108;8.640;2023-04-15T06:58:34;9.10;99.90
26342;DHT22;14054;50.108;8.640;2023-04-15T07:00:59;9.40;99.90
26342;DHT22;14054;50.108;8.640;2023-04-15T07:03:25;9.20;99.90
26342;DHT22;14054;50.108;8.640;2023-04-15T07:05:50;9.10;99.90
26342;DHT22;14054;50.108;8.640;2023-04-15T07:08:15;9.20;99.90
26342;DHT22;14054;50.108;8.640;2023-04-15T07:10:41;9.20;99.90
26342;DHT22;14054;50.108;8.640;2023-04-15T07:13:06;9.10;99.90
26342;DHT22;14054;50.108;8.640;2023-04-15T07:15:33;9.30;99.90
26342;DHT22;14054;50.108;8.640;2023-04-15T07:17:58;9.30;99.90
26342;DHT22;14054;50.108;8.640;2023-04-15T07:20:24;9.40;99.90
26342;DHT22;14054;50.108;8.640;2023-04-15T07:22:49;9.10;99.90
26342;DHT22;14054;50.108;8.640;2023-04-15T07:25:15;8.90;99.90
26342;DHT22;14054;50.108;8.640;2023-04-15T07:27:41;9.10;99.90
26342;DHT22;14054;50.108;8.640;2023-04-15T07:30:07;9.30;99.90
26342;DHT22;14054;50.108;8.640;2023-04-15T07:32:33;9.50;99.90
26342;DHT22;14054;50.108;8.640;2023-04-15T07:34:58;9.30;99.90
26342;DHT22;14054;50.108;8.640;2023-04-15T07:37:24;10.10;99.90
26342;DHT22;14054;50.108;8.640;2023-04-15T07:39:49;9.60;99.90
26342;DHT22;14054;50.108;8.640;2023-04-15T07:42:15;9.60;99.90
26342;DHT22;14054;50.108;8.640;2023-04-15T07:44:40;9.80;99.90
26342;DHT22;14054;50.108;8.640;2023-04-15T07:47:06;9.80;99.90
26342;DHT22;14054;50.108;8.640;2023-04-15T07:49:31;9.70;99.90
26342;DHT22;14054;50.108;8.640;2023-04-15T07:51:57;9.60;99.90
26342;DHT22;14054;50.108;8.640;2023-04-15T07:54:24;9.80;99.90
26342;DHT22;14054;50.108;8.640;2023-04-15T07:56:50;10.30;99.90
26342;DHT22;14054;50.108;8.640;2023-04-15T07:59:16;10.20;99.90
26342;DHT22;14054;50.108;8.640;2023-04-15T08:01:42;10.50;99.90
26342;DHT22;14054;50.108;8.640;2023-04-15T08:04:08;10.80;99.90
26342;DHT22;14054;50.108;8.640;2023-04-15T08:06:33;11.00;99.90
26342;DHT22;14054;50.108;8.640;2023-04-15T08:08:59;11.30;99.90
26342;DHT22;14054;50.108;8.640;2023-04-15T08:11:24;11.40;99.90
26342;DHT22;14054;50.108;8.640;2023-04-15T08:13:51;11.40;99.90
26342;DHT22;14054;50.108;8.640;2023-04-15T08:16:18;11.80;99.90
26342;DHT22;14054;50.108;8.640;2023-04-15T08:18:45;11.60;99.90
26342;DHT22;14054;50.108;8.640;2023-04-15T08:21:10;11.40;99.90
26342;DHT22;14054;50.108;8.640;2023-04-15T08:23:36;11.70;99.90
26342;DHT22;14054;50.108;8.640;2023-04-15T08:26:02;11.50;99.90
26342;DHT22;14054;50.108;8.640;2023-04-15T08:28:27;11.90;99.90
26342;DHT22;14054;50.108;8.640;2023-04-15T08:30:52;11.90;99.90
26342;DHT22;14054;50.108;8.640;2023-04-15T08:35:44;12.20;99.90
26342;DHT22;14054;50.108;8.640;2023-04-15T08:40:39;12.40;99.90
26342;DHT22;14054;50.108;8.640;2023-04-15T08:45:34;12.90;99.90
26342;DHT22;14054;50.108;8.640;2023-04-15T08:48:00;13.20;99.90
26342;DHT22;14054;50.108;8.640;2023-04-15T08:50:27;13.10;99.90
26342;DHT22;14054;50.108;8.640;2023-04-15T08:52:54;12.80;99.90
26342;DHT22;14054;50.108;8.640;2023-04-15T08:55:19;12.90;99.90
26342;DHT22;14054;50.108;8.640;2023-04-15T08:57:45;13.00;99.90
26342;DHT22;14054;50.108;8.640;2023-04-15T09:00:11;13.10;99.90
26342;DHT22;14054;50.108;8.640;2023-04-15T09:02:38;13.20;99.90
26342;DHT22;14054;50.108;8.640;2023-04-15T09:05:04;13.50;99.90
26342;DHT22;14054;50.108;8.640;2023-04-15T09:07:32;13.30;99.90
26342;DHT22;14054;50.108;8.640;2023-04-15T09:09:58;13.50;99.90
26342;DHT22;14054;50.108;8.640;2023-04-15T09:12:23;13.60;99.90
26342;DHT22;14054;50.108;8.640;2023-04-15T09:14:48;13.50;99.90
26342;DHT22;14054;50.108;8.640;2023-04-15T09:17:15;13.80;99.90
26342;DHT22;14054;50.108;8.640;2023-04-15T09:19:42;13.70;99.90
26342;DHT22;14054;50.108;8.640;2023-04-15T09:22:08;14.00;99.90
26342;DHT22;14054;50.108;8.640;2023-04-15T09:24:35;13.80;99.90
26342;DHT22;14054;50.108;8.640;2023-04-15T09:27:01;13.60;99.90
26342;DHT22;14054;50.108;8.640;2023-04-15T09:29:27;13.70;99.90
26342;DHT22;14054;50.108;8.640;2023-04-15T09:31:53;13.30;99.90
26342;DHT22;14054;50.108;8.640;2023-04-15T09:34:18;13.80;99.90
26342;DHT22;14054;50.108;8.640;2023-04-15T09:36:54;13.60;99.90
26342;DHT22;14054;50.108;8.640;2023-04-15T09:39:20;13.60;99.90
26342;DHT22;14054;50.108;8.640;2023-04-15T09:41:45;14.00;99.90
26342;DHT22;14054;50.108;8.640;2023-04-15T09:44:22;14.00;99.90
26342;DHT22;14054;50.108;8.640;2023-04-15T09:46:47;14.00;99.90
26342;DHT22;14054;50.108;8.640;2023-04-15T09:49:12;13.70;99.90
26342;DHT22;14054;50.108;8.640;2023-04-15T09:51:38;13.30;99.90
26342;DHT22;14054;50.108;8.640;2023-04-15T09:54:03;13.30;99.90
26342;DHT22;14054;50.108;8.640;2023-04-15T09:56:35;13.60;99.90
26342;DHT22;14054;50.108;8.640;2023-04-15T09:59:04;13.70;99.90
26342;DHT22;14054;50.108;8.640;2023-04-15T10:01:29;13.40;99.90
26342;DHT22;14054;50.108;8.640;2023-04-15T10:03:55;13.50;99.90
26342;DHT22;14054;50.108;8.640;2023-04-15T10:06:21;13.10;99.90
26342;DHT22;14054;50.108;8.640;2023-04-15T10:08:47;13.20;99.90
26342;DHT22;14054;50.108;8.640;2023-04-15T10:11:13;13.30;99.90
26342;DHT22;14054;50.108;8.640;2023-04-15T10:13:38;12.90;99.90
26342;DHT22;14054;50.108;8.640;2023-04-15T10:16:05;12.80;99.90
26342;DHT22;14054;50.108;8.640;2023-04-15T10:18:33;12.80;99.90
26342;DHT22;14054;50.108;8.640;2023-04-15T10:20:59;12.90;99.90
26342;DHT22;14054;50.108;8.640;2023-04-15T10:23:25;12.60;99.90
26342;DHT22;14054;50.108;8.640;2023-04-15T10:25:52;12.50;99.90
26342;DHT22;14054;50.108;8.640;2023-04-15T10:28:20;12.60;99.90
26342;DHT22;14054;50.108;8.640;2023-04-15T10:30:49;13.10;99.90
26342;DHT22;14054;50.108;8.640;2023-04-15T10:33:15;13.40;99.90
26342;DHT22;14054;50.108;8.640;2023-04-15T10:35:41;13.60;99.90
26342;DHT22;14054;50.108;8.640;2023-04-15T10:40:51;13.10;99.90
26342;DHT22;14054;50.108;8.640;2023-04-15T10:43:26;13.80;99.90
26342;DHT22;14054;50.108;8.640;2023-04-15T10:45:52;14.10;99.90
26342;DHT22;14054;50.108;8.640;2023-04-15T10:48:17;14.40;99.90
26342;DHT22;14054;50.108;8.640;2023-04-15T10:50:54;14.70;99.90
26342;DHT22;14054;50.108;8.640;2023-04-15T10:53:25;14.60;99.90
26342;DHT22;14054;50.108;8.640;2023-04-15T10:55:51;14.50;99.90
26342;DHT22;14054;50.108;8.640;2023-04-15T10:58:16;14.80;99.90
26342;DHT22;14054;50.108;8.640;2023-04-15T11:00:42;14.90;99.90
26342;DHT22;14054;50.108;8.640;2023-04-15T11:03:14;14.50;99.90
26342;DHT22;14054;50.108;8.640;2023-04-15T11:08:05;13.90;99.90
26342;DHT22;14054;50.108;8.640;2023-04-15T11:12:57;13.90;99.90
26342;DHT22;14054;50.108;8.640;2023-04-15T11:15:32;13.80;99.90
26342;DHT22;14054;50.108;8.640;2023-04-15T11:17:59;13.80;99.90
26342;DHT22;14054;50.108;8.640;2023-04-15T11:20:32;14.20;99.90
26342;DHT22;14054;50.108;8.640;2023-04-15T11:22:58;14.30;99.90
26342;DHT22;14054;50.108;8.640;2023-04-15T11:25:33;14.70;99.90
26342;DHT22;14054;50.108;8.640;2023-04-15T11:27:59;15.20;99.90
26342;DHT22;14054;50.108;8.640;2023-04-15T11:30:25;15.20;99.90
26342;DHT22;14054;50.108;8.640;2023-04-15T11:32:52;15.20;99.90
26342;DHT22;14054;50.108;8.640;2023-04-15T11:35:18;14.70;99.90
26342;DHT22;14054;50.108;8.640;2023-04-15T11:37:44;14.50;99.90
26342;DHT22;14054;50.108;8.640;2023-04-15T11:40:10;14.60;99.90
26342;DHT22;14054;50.108;8.640;2023-04-15T11:42:36;13.90;99.90
26342;DHT22;14054;50.108;8.640;2023-04-15T11:45:14;13.90;99.90
26342;DHT22;14054;50.108;8.640;2023-04-15T11:47:40;13.30;99.90
26342;DHT22;14054;50.108;8.640;2023-04-15T11:50:21;13.40;99.90
26342;DHT22;14054;50.108;8.640;2023-04-15T11:55:18;12.80;99.90
26342;DHT22;14054;50.108;8.640;2023-04-15T11:57:44;12.60;99.90
26342;DHT22;14054;50.108;8.640;2023-04-15T12:00:09;12.60;99.90
26342;DHT22;14054;50.108;8.640;2023-04-15T12:02:35;12.80;99.90
26342;DHT22;14054;50.108;8.640;2023-04-15T12:05:02;13.00;99.90
26342;DHT22;14054;50.108;8.640;2023-04-15T12:07:28;12.80;99.90
26342;DHT22;14054;50.108;8.640;2023-04-15T12:09:54;12.80;99.90
26342;DHT22;14054;50.108;8.640;2023-04-15T12:12:19;12.40;99.90
26342;DHT22;14054;50.108;8.640;2023-04-15T12:14:45;12.40;99.90
26342;DHT22;14054;50.108;8.640;2023-04-15T12:17:10;12.30;99.90
26342;DHT22;14054;50.108;8.640;2023-04-15T12:19:38;12.10;99.90
26342;DHT22;14054;50.108;8.640;2023-04-15T12:22:04;12.20;99.90
26342;DHT22;14054;50.108;8.640;2023-04-15T12:24:34;12.10;99.90
26342;DHT22;14054;50.108;8.640;2023-04-15T12:27:01;12.10;99.90
26342;DHT22;14054;50.108;8.640;2023-04-15T12:29:27;12.10;99.90
26342;DHT22;14054;50.108;8.640;2023-04-15T12:31:54;12.20;99.90
26342;DHT22;14054;50.108;8.640;2023-04-15T12:34:27;12.20;99.90
26342;DHT22;14054;50.108;8.640;2023-04-15T12:36:53;11.80;99.90
26342;DHT22;14054;50.108;8.640;2023-04-15T12:39:23;11.80;99.90
26342;DHT22;14054;50.108;8.640;2023-04-15T12:41:49;11.60;99.90
26342;DHT22;14054;50.108;8.640;2023-04-15T12:44:15;11.20;99.90
26342;DHT22;14054;50.108;8.640;2023-04-15T12:46:41;11.70;99.90
26342;DHT22;14054;50.108;8.640;2023-04-15T12:49:07;11.60;99.90
26342;DHT22;14054;50.108;8.640;2023-04-15T12:51:32;11.50;99.90
26342;DHT22;14054;50.108;8.640;2023-04-15T12:53:57;11.50;99.90
26342;DHT22;14054;50.108;8.640;2023-04-15T12:56:23;11.40;99.90
26342;DHT22;14054;50.108;8.640;2023-04-15T12:58:48;11.20;99.90
26342;DHT22;14054;50.108;8.640;2023-04-15T13:01:14;11.40;99.90
26342;DHT22;14054;50.108;8.640;2023-04-15T13:03:39;11.10;99.90
26342;DHT22;14054;50.108;8.640;2023-04-15T13:06:05;11.10;99.90
26342;DHT22;14054;50.108;8.640;2023-04-15T13:08:31;11.00;99.90
26342;DHT22;14054;50.108;8.640;2023-04-15T13:10:56;11.00;99.90
26342;DHT22;14054;50.108;8.640;2023-04-15T13:13:22;11.20;99.90
26342;DHT22;14054;50.108;8.640;2023-04-15T13:15:47;11.00;99.90
26342;DHT22;14054;50.108;8.640;2023-04-15T13:18:13;11.10;99.90
26342;DHT22;14054;50.108;8.640;2023-04-15T13:20:38;10.70;99.90
26342;DHT22;14054;50.108;8.640;2023-04-15T13:23:04;10.50;99.90
26342;DHT22;14054;50.108;8.640;2023-04-15T13:25:29;10.40;99.90
26342;DHT22;14054;50.108;8.640;2023-04-15T13:27:54;10.50;99.90
26342;DHT22;14054;50.108;8.640;2023-04-15T13:30:21;10.50;99.90
26342;DHT22;14054;50.108;8.640;2023-04-15T13:32:47;10.70;99.90
26342;DHT22;14054;50.108;8.640;2023-04-15T13:35:13;10.70;99.90
26342;DHT22;14054;50.108;8.640;2023-04-15T13:37:39;10.70;99.90
26342;DHT22;14054;50.108;8.640;2023-04-15T13:40:04;10.70;99.90
26342;DHT22;14054;50.108;8.640;2023-04-15T13:42:31;10.70;99.90
26342;DHT22;14054;50.108;8.640;2023-04-15T13:44:57;10.70;99.90
26342;DHT22;14054;50.108;8.640;2023-04-15T13:47:22;10.60;99.90
26342;DHT22;14054;50.108;8.640;2023-04-15T13:49:47;10.70;99.90
26342;DHT22;14054;50.108;8.640;2023-04-15T13:52:13;10.70;99.90
26342;DHT22;14054;50.108;8.640;2023-04-15T13:54:38;10.70;99.90
26342;DHT22;14054;50.108;8.640;2023-04-15T13:57:04;10.80;99.90
26342;DHT22;14054;50.108;8.640;2023-04-15T13:59:30;10.80;99.90
26342;DHT22;14054;50.108;8.640;2023-04-15T14:01:57;10.70;99.90
26342;DHT22;14054;50.108;8.640;2023-04-15T14:04:22;10.70;99.90
26342;DHT22;14054;50.108;8.640;2023-04-15T14:06:47;10.80;99.90
26342;DHT22;14054;50.108;8.640;2023-04-15T14:09:14;10.80;99.90
26342;DHT22;14054;50.108;8.640;2023-04-15T14:11:39;10.80;99.90
26342;DHT22;14054;50.108;8.640;2023-04-15T14:14:05;10.70;99.90
26342;DHT22;14054;50.108;8.640;2023-04-15T14:16:33;10.80;99.90
26342;DHT22;14054;50.108;8.640;2023-04-15T14:18:59;10.70;99.90
26342;DHT22;14054;50.108;8.640;2023-04-15T14:21:25;10.70;99.90
26342;DHT22;14054;50.108;8.640;2023-04-15T14:23:52;10.70;99.90
26342;DHT22;14054;50.108;8.640;2023-04-15T14:26:17;10.70;99.90
26342;DHT22;14054;50.108;8.640;2023-04-15T14:28:43;10.80;99.90
26342;DHT22;14054;50.108;8.640;2023-04-15T14:31:09;10.80;99.90
26342;DHT22;14054;50.108;8.640;2023-04-15T14:33:34;10.80;99.90
26342;DHT22;14054;50.108;8.640;2023-04-15T14:36:00;10.80;99.90
26342;DHT22;14054;50.108;8.640;2023-04-15T14:38:25;10.80;99.90
26342;DHT22;14054;50.108;8.640;2023-04-15T14:40:51;10.80;99.90
26342;DHT22;14054;50.108;8.640;2023-04-15T14:43:16;10.80;99.90
26342;DHT22;14054;50.108;8.640;2023-04-15T14:45:41;10.60;99.90
26342;DHT22;14054;50.108;8.640;2023-04-15T14:48:08;10.50;99.90
26342;DHT22;14054;50.108;8.640;2023-04-15T14:50:34;10.50;99.90
26342;DHT22;14054;50.108;8.640;2023-04-15T14:53:01;10.50;99.90
26342;DHT22;14054;50.108;8.640;2023-04-15T14:55:26;10.60;99.90
26342;DHT22;14054;50.108;8.640;2023-04-15T14:57:52;10.60;99.90
26342;DHT22;14054;50.108;8.640;2023-04-15T15:00:17;10.60;99.90
26342;DHT22;14054;50.108;8.640;2023-04-15T15:02:42;10.70;99.90
26342;DHT22;14054;50.108;8.640;2023-04-15T15:05:08;10.60;99.90
26342;DHT22;14054;50.108;8.640;2023-04-15T15:07:34;10.60;99.90
26342;DHT22;14054;50.108;8.640;2023-04-15T15:10:01;10.40;99.90
26342;DHT22;14054;50.108;8.640;2023-04-15T15:14:53;10.30;99.90
26342;DHT22;14054;50.108;8.640;2023-04-15T15:17:19;10.40;99.90
26342;DHT22;14054;50.108;8.640;2023-04-15T15:19:44;10.40;99.90
26342;DHT22;14054;50.108;8.640;2023-04-15T15:22:10;10.30;99.90
26342;DHT22;14054;50.108;8.640;2023-04-15T15:24:35;10.00;99.90
26342;DHT22;14054;50.108;8.640;2023-04-15T15:27:01;10.10;99.90
26342;DHT22;14054;50.108;8.640;2023-04-15T15:29:27;10.10;99.90
26342;DHT22;14054;50.108;8.640;2023-04-15T15:31:52;10.10;99.90
26342;DHT22;14054;50.108;8.640;2023-04-15T15:34:17;10.00;99.90
26342;DHT22;14054;50.108;8.640;2023-04-15T15:36:43;10.10;99.90
26342;DHT22;14054;50.108;8.640;2023-04-15T15:39:09;10.00;99.90
26342;DHT22;14054;50.108;8.640;2023-04-15T15:41:34;10.00;99.90
26342;DHT22;14054;50.108;8.640;2023-04-15T15:44:00;10.00;99.90
26342;DHT22;14054;50.108;8.640;2023-04-15T15:46:27;10.00;99.90
26342;DHT22;14054;50.108;8.640;2023-04-15T15:48:55;10.10;99.90
26342;DHT22;14054;50.108;8.640;2023-04-15T15:51:21;10.20;99.90